sensor_id;sensor_type;location;lat;lon;timestamp;P1;durP1;ratioP1;P2;durP2;ratioP2
18887;SDS011;9576;47.792;9.628;2023-02-13T00:01:27;40.05;;;15.23;;
18887;SDS011;9576;47.792;9.628;2023-02-13T00:04:29;42.00;;;16.00;;
18887;SDS011;9576;47.792;9.628;2023-02-13T00:07:31;42.78;;;15.30;;
18887;SDS011;9576;47.792;9.628;2023-02-13T00:10:34;47.78;;;15.85;;
18887;SDS011;9576;47.792;9.628;2023-02-13T00:13:37;34.95;;;14.82;;
18887;SDS011;9576;47.792;9.628;2023-02-13T00:16:39;47.55;;;16.42;;
18887;SDS011;9576;47.792;9.628;2023-02-13T00:19:40;49.88;;;15.95;;
18887;SDS011;9576;47.792;9.628;2023-02-13T00:22:42;56.75;;;17.05;;
18887;SDS011;9576;47.792;9.628;2023-02-13T00:25:46;50.10;;;16.80;;
18887;SDS011;9576;47.792;9.628;2023-02-13T00:28:48;46.17;;;16.00;;
18887;SDS011;9576;47.792;9.628;2023-02-13T00:31:49;47.97;;;15.93;;
18887;SDS011;9576;47.792;9.628;2023-02-13T00:34:51;40.42;;;15.43;;
18887;SDS011;9576;47.792;9.628;2023-02-13T00:37:53;41.35;;;16.50;;
18887;SDS011;9576;47.792;9.628;2023-02-13T00:40:56;38.00;;;15.63;;
18887;SDS011;9576;47.792;9.628;2023-02-13T00:43:58;47.28;;;17.38;;
18887;SDS011;9576;47.792;9.628;2023-02-13T00:47:00;42.28;;;16.42;;
18887;SDS011;9576;47.792;9.628;2023-02-13T00:50:02;48.88;;;16.80;;
18887;SDS011;9576;47.792;9.628;2023-02-13T00:53:05;44.95;;;16.42;;
18887;SDS011;9576;47.792;9.628;2023-02-13T00:56:08;48.67;;;18.60;;
18887;SDS011;9576;47.792;9.628;2023-02-13T00:59:10;42.67;;;17.73;;
18887;SDS011;9576;47.792;9.628;2023-02-13T01:02:12;50.35;;;18.25;;
18887;SDS011;9576;47.792;9.628;2023-02-13T01:05:14;40.88;;;17.52;;
18887;SDS011;9576;47.792;9.628;2023-02-13T01:08:16;48.95;;;17.88;;
18887;SDS011;9576;47.792;9.628;2023-02-13T01:11:21;53.30;;;16.83;;
18887;SDS011;9576;47.792;9.628;2023-02-13T01:14:23;49.83;;;17.63;;
18887;SDS011;9576;47.792;9.628;2023-02-13T01:17:25;42.28;;;16.52;;
18887;SDS011;9576;47.792;9.628;2023-02-13T01:20:27;55.08;;;16.48;;
18887;SDS011;9576;47.792;9.628;2023-02-13T01:23:29;39.70;;;15.93;;
18887;SDS011;9576;47.792;9.628;2023-02-13T01:26:33;40.90;;;15.60;;
18887;SDS011;9576;47.792;9.628;2023-02-13T01:29:35;34.25;;;14.23;;
18887;SDS011;9576;47.792;9.628;2023-02-13T01:32:37;48.38;;;17.95;;
18887;SDS011;9576;47.792;9.628;2023-02-13T01:35:39;39.83;;;15.70;;
18887;SDS011;9576;47.792;9.628;2023-02-13T01:38:41;41.92;;;15.80;;
18887;SDS011;9576;47.792;9.628;2023-02-13T01:41:45;35.88;;;14.23;;
18887;SDS011;9576;47.792;9.628;2023-02-13T01:44:48;31.30;;;13.68;;
18887;SDS011;9576;47.792;9.628;2023-02-13T01:47:53;38.13;;;14.82;;
18887;SDS011;9576;47.792;9.628;2023-02-13T01:50:58;36.92;;;14.70;;
18887;SDS011;9576;47.792;9.628;2023-02-13T01:54:04;43.15;;;15.82;;
18887;SDS011;9576;47.792;9.628;2023-02-13T01:57:11;31.73;;;13.65;;
18887;SDS011;9576;47.792;9.628;2023-02-13T02:00:17;29.17;;;12.30;;
18887;SDS011;9576;47.792;9.628;2023-02-13T02:03:20;30.33;;;13.48;;
18887;SDS011;9576;47.792;9.628;2023-02-13T02:06:28;28.98;;;12.38;;
18887;SDS011;9576;47.792;9.628;2023-02-13T02:09:34;34.90;;;13.45;;
18887;SDS011;9576;47.792;9.628;2023-02-13T02:12:42;26.35;;;12.88;;
18887;SDS011;9576;47.792;9.628;2023-02-13T02:15:49;38.10;;;14.95;;
18887;SDS011;9576;47.792;9.628;2023-02-13T02:18:52;26.58;;;12.85;;
18887;SDS011;9576;47.792;9.628;2023-02-13T02:22:02;31.70;;;13.43;;
18887;SDS011;9576;47.792;9.628;2023-02-13T02:25:52;25.70;;;12.30;;
18887;SDS011;9576;47.792;9.628;2023-02-13T02:33:09;32.38;;;13.30;;
18887;SDS011;9576;47.792;9.628;2023-02-13T02:36:24;25.73;;;12.43;;
18887;SDS011;9576;47.792;9.628;2023-02-13T02:39:36;30.80;;;13.45;;
18887;SDS011;9576;47.792;9.628;2023-02-13T02:42:50;27.90;;;12.85;;
18887;SDS011;9576;47.792;9.628;2023-02-13T02:46:05;27.05;;;12.55;;
18887;SDS011;9576;47.792;9.628;2023-02-13T02:49:14;23.85;;;11.43;;
18887;SDS011;9576;47.792;9.628;2023-02-13T02:52:38;30.42;;;12.02;;
18887;SDS011;9576;47.792;9.628;2023-02-13T02:55:47;36.10;;;14.05;;
18887;SDS011;9576;47.792;9.628;2023-02-13T02:58:55;27.40;;;12.20;;
18887;SDS011;9576;47.792;9.628;2023-02-13T03:02:19;28.97;;;12.13;;
18887;SDS011;9576;47.792;9.628;2023-02-13T03:05:43;28.33;;;12.43;;
18887;SDS011;9576;47.792;9.628;2023-02-13T03:09:05;37.22;;;13.77;;
18887;SDS011;9576;47.792;9.628;2023-02-13T03:12:29;40.63;;;13.77;;
18887;SDS011;9576;47.792;9.628;2023-02-13T03:15:56;30.08;;;12.52;;
18887;SDS011;9576;47.792;9.628;2023-02-13T03:19:21;36.20;;;12.63;;
18887;SDS011;9576;47.792;9.628;2023-02-13T03:22:54;34.80;;;13.05;;
18887;SDS011;9576;47.792;9.628;2023-02-13T03:26:06;30.73;;;12.48;;
18887;SDS011;9576;47.792;9.628;2023-02-13T03:29:36;33.25;;;12.63;;
18887;SDS011;9576;47.792;9.628;2023-02-13T03:33:04;29.83;;;12.18;;
18887;SDS011;9576;47.792;9.628;2023-02-13T03:36:18;36.00;;;14.48;;
18887;SDS011;9576;47.792;9.628;2023-02-13T03:39:55;33.58;;;12.85;;
18887;SDS011;9576;47.792;9.628;2023-02-13T03:43:04;31.10;;;12.63;;
18887;SDS011;9576;47.792;9.628;2023-02-13T03:46:12;27.50;;;12.55;;
18887;SDS011;9576;47.792;9.628;2023-02-13T03:49:17;32.05;;;13.88;;
18887;SDS011;9576;47.792;9.628;2023-02-13T03:52:42;35.65;;;14.13;;
18887;SDS011;9576;47.792;9.628;2023-02-13T03:55:51;31.88;;;13.30;;
18887;SDS011;9576;47.792;9.628;2023-02-13T03:59:15;29.63;;;12.73;;
18887;SDS011;9576;47.792;9.628;2023-02-13T04:02:23;32.97;;;12.98;;
18887;SDS011;9576;47.792;9.628;2023-02-13T04:05:31;28.30;;;13.18;;
18887;SDS011;9576;47.792;9.628;2023-02-13T04:08:39;27.60;;;12.13;;
18887;SDS011;9576;47.792;9.628;2023-02-13T04:11:44;34.70;;;12.38;;
18887;SDS011;9576;47.792;9.628;2023-02-13T04:14:54;31.65;;;13.88;;
18887;SDS011;9576;47.792;9.628;2023-02-13T04:18:04;33.50;;;13.25;;
18887;SDS011;9576;47.792;9.628;2023-02-13T04:21:10;32.70;;;14.32;;
18887;SDS011;9576;47.792;9.628;2023-02-13T04:24:12;34.45;;;13.88;;
18887;SDS011;9576;47.792;9.628;2023-02-13T04:27:15;32.00;;;13.30;;
18887;SDS011;9576;47.792;9.628;2023-02-13T04:30:18;36.47;;;14.03;;
18887;SDS011;9576;47.792;9.628;2023-02-13T04:33:20;31.23;;;13.48;;
18887;SDS011;9576;47.792;9.628;2023-02-13T04:36:22;34.58;;;14.30;;
18887;SDS011;9576;47.792;9.628;2023-02-13T04:39:24;31.67;;;15.02;;
18887;SDS011;9576;47.792;9.628;2023-02-13T04:42:27;28.02;;;12.90;;
18887;SDS011;9576;47.792;9.628;2023-02-13T04:45:29;29.63;;;11.95;;
18887;SDS011;9576;47.792;9.628;2023-02-13T04:48:31;32.90;;;13.70;;
18887;SDS011;9576;47.792;9.628;2023-02-13T04:51:33;38.35;;;15.35;;
18887;SDS011;9576;47.792;9.628;2023-02-13T04:54:35;33.60;;;14.48;;
18887;SDS011;9576;47.792;9.628;2023-02-13T04:57:38;37.40;;;14.25;;
18887;SDS011;9576;47.792;9.628;2023-02-13T05:00:40;32.08;;;13.85;;
18887;SDS011;9576;47.792;9.628;2023-02-13T05:03:42;35.85;;;15.13;;
18887;SDS011;9576;47.792;9.628;2023-02-13T05:06:44;50.28;;;14.98;;
18887;SDS011;9576;47.792;9.628;2023-02-13T05:09:46;36.60;;;14.63;;
18887;SDS011;9576;47.792;9.628;2023-02-13T05:12:49;36.85;;;15.80;;
18887;SDS011;9576;47.792;9.628;2023-02-13T05:15:51;36.20;;;14.88;;
18887;SDS011;9576;47.792;9.628;2023-02-13T05:18:53;43.25;;;17.23;;
18887;SDS011;9576;47.792;9.628;2023-02-13T05:21:55;37.92;;;16.23;;
18887;SDS011;9576;47.792;9.628;2023-02-13T05:25:14;43.38;;;14.95;;
18887;SDS011;9576;47.792;9.628;2023-02-13T05:28:18;36.10;;;14.25;;
18887;SDS011;9576;47.792;9.628;2023-02-13T05:31:37;40.22;;;15.05;;
18887;SDS011;9576;47.792;9.628;2023-02-13T05:34:39;43.15;;;15.80;;
18887;SDS011;9576;47.792;9.628;2023-02-13T05:37:41;42.58;;;14.32;;
18887;SDS011;9576;47.792;9.628;2023-02-13T05:40:43;42.33;;;16.38;;
18887;SDS011;9576;47.792;9.628;2023-02-13T05:43:46;38.50;;;15.10;;
18887;SDS011;9576;47.792;9.628;2023-02-13T05:46:48;39.33;;;15.80;;
18887;SDS011;9576;47.792;9.628;2023-02-13T05:49:52;44.23;;;17.93;;
18887;SDS011;9576;47.792;9.628;2023-02-13T05:52:54;44.58;;;18.50;;
18887;SDS011;9576;47.792;9.628;2023-02-13T05:55:56;45.22;;;17.38;;
18887;SDS011;9576;47.792;9.628;2023-02-13T05:58:59;48.55;;;16.58;;
18887;SDS011;9576;47.792;9.628;2023-02-13T06:02:01;40.17;;;16.52;;
18887;SDS011;9576;47.792;9.628;2023-02-13T06:05:03;45.55;;;17.42;;
18887;SDS011;9576;47.792;9.628;2023-02-13T06:08:05;41.45;;;16.02;;
18887;SDS011;9576;47.792;9.628;2023-02-13T06:11:07;44.35;;;15.85;;
18887;SDS011;9576;47.792;9.628;2023-02-13T06:14:11;43.58;;;17.73;;
18887;SDS011;9576;47.792;9.628;2023-02-13T06:17:14;43.97;;;17.23;;
18887;SDS011;9576;47.792;9.628;2023-02-13T06:20:15;57.50;;;19.80;;
18887;SDS011;9576;47.792;9.628;2023-02-13T06:23:18;46.38;;;18.73;;
18887;SDS011;9576;47.792;9.628;2023-02-13T06:26:20;52.97;;;18.38;;
18887;SDS011;9576;47.792;9.628;2023-02-13T06:29:23;49.65;;;19.55;;
18887;SDS011;9576;47.792;9.628;2023-02-13T06:32:25;52.88;;;17.85;;
18887;SDS011;9576;47.792;9.628;2023-02-13T06:35:27;45.50;;;18.58;;
18887;SDS011;9576;47.792;9.628;2023-02-13T06:38:29;56.40;;;20.40;;
18887;SDS011;9576;47.792;9.628;2023-02-13T06:41:31;49.08;;;19.10;;
18887;SDS011;9576;47.792;9.628;2023-02-13T06:44:34;42.95;;;17.27;;
18887;SDS011;9576;47.792;9.628;2023-02-13T06:47:39;52.90;;;18.80;;
18887;SDS011;9576;47.792;9.628;2023-02-13T06:50:41;55.35;;;18.40;;
18887;SDS011;9576;47.792;9.628;2023-02-13T06:53:43;50.50;;;17.98;;
18887;SDS011;9576;47.792;9.628;2023-02-13T06:56:45;50.88;;;17.35;;
18887;SDS011;9576;47.792;9.628;2023-02-13T06:59:48;52.80;;;19.10;;
18887;SDS011;9576;47.792;9.628;2023-02-13T07:02:50;62.97;;;22.27;;
18887;SDS011;9576;47.792;9.628;2023-02-13T07:05:52;52.40;;;20.90;;
18887;SDS011;9576;47.792;9.628;2023-02-13T07:08:55;64.85;;;21.00;;
18887;SDS011;9576;47.792;9.628;2023-02-13T07:11:57;53.95;;;19.52;;
18887;SDS011;9576;47.792;9.628;2023-02-13T07:15:00;53.05;;;19.85;;
18887;SDS011;9576;47.792;9.628;2023-02-13T07:18:03;52.00;;;18.85;;
18887;SDS011;9576;47.792;9.628;2023-02-13T07:21:05;58.38;;;20.30;;
18887;SDS011;9576;47.792;9.628;2023-02-13T07:24:07;68.80;;;25.80;;
18887;SDS011;9576;47.792;9.628;2023-02-13T07:27:09;48.42;;;20.45;;
18887;SDS011;9576;47.792;9.628;2023-02-13T07:30:13;65.53;;;20.40;;
18887;SDS011;9576;47.792;9.628;2023-02-13T07:33:15;46.15;;;18.48;;
18887;SDS011;9576;47.792;9.628;2023-02-13T07:36:17;49.20;;;18.35;;
18887;SDS011;9576;47.792;9.628;2023-02-13T07:39:19;67.65;;;22.58;;
18887;SDS011;9576;47.792;9.628;2023-02-13T07:42:21;56.08;;;20.40;;
18887;SDS011;9576;47.792;9.628;2023-02-13T07:45:24;55.63;;;18.58;;
18887;SDS011;9576;47.792;9.628;2023-02-13T07:48:26;66.03;;;19.83;;
18887;SDS011;9576;47.792;9.628;2023-02-13T07:51:29;42.47;;;19.90;;
18887;SDS011;9576;47.792;9.628;2023-02-13T07:54:31;54.58;;;20.63;;
18887;SDS011;9576;47.792;9.628;2023-02-13T07:57:33;47.47;;;18.25;;
18887;SDS011;9576;47.792;9.628;2023-02-13T08:00:36;61.17;;;21.67;;
18887;SDS011;9576;47.792;9.628;2023-02-13T08:03:38;53.40;;;21.35;;
18887;SDS011;9576;47.792;9.628;2023-02-13T08:06:40;49.58;;;19.35;;
18887;SDS011;9576;47.792;9.628;2023-02-13T08:09:43;56.88;;;19.13;;
18887;SDS011;9576;47.792;9.628;2023-02-13T08:13:02;47.42;;;19.85;;
18887;SDS011;9576;47.792;9.628;2023-02-13T08:16:07;58.47;;;19.65;;
18887;SDS011;9576;47.792;9.628;2023-02-13T08:19:09;52.83;;;20.52;;
18887;SDS011;9576;47.792;9.628;2023-02-13T08:22:11;63.17;;;21.08;;
18887;SDS011;9576;47.792;9.628;2023-02-13T08:25:12;45.97;;;18.17;;
18887;SDS011;9576;47.792;9.628;2023-02-13T08:28:15;60.97;;;21.63;;
18887;SDS011;9576;47.792;9.628;2023-02-13T08:31:18;64.15;;;20.40;;
18887;SDS011;9576;47.792;9.628;2023-02-13T08:34:20;45.47;;;18.58;;
18887;SDS011;9576;47.792;9.628;2023-02-13T08:37:22;55.35;;;18.77;;
18887;SDS011;9576;47.792;9.628;2023-02-13T08:40:24;55.88;;;20.52;;
18887;SDS011;9576;47.792;9.628;2023-02-13T08:43:26;53.65;;;20.13;;
18887;SDS011;9576;47.792;9.628;2023-02-13T08:46:30;53.60;;;21.83;;
18887;SDS011;9576;47.792;9.628;2023-02-13T08:49:32;62.50;;;20.92;;
18887;SDS011;9576;47.792;9.628;2023-02-13T08:52:34;60.03;;;21.48;;
18887;SDS011;9576;47.792;9.628;2023-02-13T08:55:36;52.97;;;21.77;;
18887;SDS011;9576;47.792;9.628;2023-02-13T08:58:38;46.08;;;18.50;;
18887;SDS011;9576;47.792;9.628;2023-02-13T09:01:41;45.88;;;17.55;;
18887;SDS011;9576;47.792;9.628;2023-02-13T09:04:43;52.28;;;19.48;;
18887;SDS011;9576;47.792;9.628;2023-02-13T09:07:45;62.17;;;19.80;;
18887;SDS011;9576;47.792;9.628;2023-02-13T09:10:54;44.58;;;18.80;;
18887;SDS011;9576;47.792;9.628;2023-02-13T09:13:57;50.53;;;19.85;;
18887;SDS011;9576;47.792;9.628;2023-02-13T09:17:00;48.55;;;19.02;;
18887;SDS011;9576;47.792;9.628;2023-02-13T09:20:02;44.25;;;17.83;;
18887;SDS011;9576;47.792;9.628;2023-02-13T09:23:04;45.05;;;17.67;;
18887;SDS011;9576;47.792;9.628;2023-02-13T09:26:07;46.42;;;17.50;;
18887;SDS011;9576;47.792;9.628;2023-02-13T09:29:10;45.70;;;17.13;;
18887;SDS011;9576;47.792;9.628;2023-02-13T09:32:13;42.38;;;17.15;;
18887;SDS011;9576;47.792;9.628;2023-02-13T09:35:16;51.00;;;15.77;;
18887;SDS011;9576;47.792;9.628;2023-02-13T09:38:18;42.70;;;17.15;;
18887;SDS011;9576;47.792;9.628;2023-02-13T09:41:21;38.65;;;17.23;;
18887;SDS011;9576;47.792;9.628;2023-02-13T09:44:27;41.10;;;15.90;;
18887;SDS011;9576;47.792;9.628;2023-02-13T09:47:35;39.03;;;16.77;;
18887;SDS011;9576;47.792;9.628;2023-02-13T09:50:39;51.97;;;17.73;;
18887;SDS011;9576;47.792;9.628;2023-02-13T09:53:43;41.05;;;16.30;;
18887;SDS011;9576;47.792;9.628;2023-02-13T09:56:53;36.05;;;14.02;;
18887;SDS011;9576;47.792;9.628;2023-02-13T10:00:02;48.92;;;14.77;;
18887;SDS011;9576;47.792;9.628;2023-02-13T10:03:17;36.97;;;14.25;;
18887;SDS011;9576;47.792;9.628;2023-02-13T10:06:27;36.45;;;15.60;;
18887;SDS011;9576;47.792;9.628;2023-02-13T10:09:35;45.55;;;16.38;;
18887;SDS011;9576;47.792;9.628;2023-02-13T10:12:45;38.13;;;15.00;;
18887;SDS011;9576;47.792;9.628;2023-02-13T10:16:06;39.28;;;15.27;;
18887;SDS011;9576;47.792;9.628;2023-02-13T10:19:15;39.70;;;14.13;;
18887;SDS011;9576;47.792;9.628;2023-02-13T10:22:28;42.58;;;15.20;;
18887;SDS011;9576;47.792;9.628;2023-02-13T10:25:38;37.28;;;15.25;;
18887;SDS011;9576;47.792;9.628;2023-02-13T10:28:45;40.60;;;15.65;;
18887;SDS011;9576;47.792;9.628;2023-02-13T10:32:13;36.40;;;15.70;;
18887;SDS011;9576;47.792;9.628;2023-02-13T10:35:21;35.97;;;15.75;;
18887;SDS011;9576;47.792;9.628;2023-02-13T10:38:28;41.80;;;14.60;;
18887;SDS011;9576;47.792;9.628;2023-02-13T10:41:36;33.72;;;14.98;;
18887;SDS011;9576;47.792;9.628;2023-02-13T10:44:47;54.40;;;16.27;;
18887;SDS011;9576;47.792;9.628;2023-02-13T10:48:01;43.28;;;16.50;;
18887;SDS011;9576;47.792;9.628;2023-02-13T10:51:20;40.30;;;17.80;;
18887;SDS011;9576;47.792;9.628;2023-02-13T10:54:33;39.58;;;16.55;;
18887;SDS011;9576;47.792;9.628;2023-02-13T10:57:58;37.13;;;14.35;;
18887;SDS011;9576;47.792;9.628;2023-02-13T11:01:08;42.88;;;15.50;;
18887;SDS011;9576;47.792;9.628;2023-02-13T11:04:18;40.97;;;15.40;;
18887;SDS011;9576;47.792;9.628;2023-02-13T11:07:22;41.58;;;15.05;;
18887;SDS011;9576;47.792;9.628;2023-02-13T11:10:26;42.85;;;14.68;;
18887;SDS011;9576;47.792;9.628;2023-02-13T11:13:28;40.58;;;15.68;;
18887;SDS011;9576;47.792;9.628;2023-02-13T11:16:37;38.85;;;15.82;;
18887;SDS011;9576;47.792;9.628;2023-02-13T11:19:46;46.58;;;15.82;;
18887;SDS011;9576;47.792;9.628;2023-02-13T11:22:52;32.95;;;15.75;;
18887;SDS011;9576;47.792;9.628;2023-02-13T11:25:56;57.45;;;20.73;;
18887;SDS011;9576;47.792;9.628;2023-02-13T11:29:00;39.10;;;17.10;;
18887;SDS011;9576;47.792;9.628;2023-02-13T11:32:15;42.70;;;16.15;;
18887;SDS011;9576;47.792;9.628;2023-02-13T11:35:27;43.78;;;17.10;;
18887;SDS011;9576;47.792;9.628;2023-02-13T11:38:32;35.33;;;13.95;;
18887;SDS011;9576;47.792;9.628;2023-02-13T11:41:38;34.90;;;14.73;;
18887;SDS011;9576;47.792;9.628;2023-02-13T11:44:42;42.63;;;15.77;;
18887;SDS011;9576;47.792;9.628;2023-02-13T11:47:50;37.83;;;14.57;;
18887;SDS011;9576;47.792;9.628;2023-02-13T11:50:54;47.10;;;16.73;;
18887;SDS011;9576;47.792;9.628;2023-02-13T11:53:58;36.78;;;15.52;;
18887;SDS011;9576;47.792;9.628;2023-02-13T11:57:00;37.50;;;15.77;;
18887;SDS011;9576;47.792;9.628;2023-02-13T12:03:28;42.40;;;16.95;;
18887;SDS011;9576;47.792;9.628;2023-02-13T12:09:40;42.15;;;15.23;;
18887;SDS011;9576;47.792;9.628;2023-02-13T12:12:44;33.55;;;14.20;;
18887;SDS011;9576;47.792;9.628;2023-02-13T12:15:54;38.85;;;16.08;;
18887;SDS011;9576;47.792;9.628;2023-02-13T12:19:02;38.00;;;15.65;;
18887;SDS011;9576;47.792;9.628;2023-02-13T12:22:13;39.17;;;15.77;;
18887;SDS011;9576;47.792;9.628;2023-02-13T12:28:47;41.22;;;15.80;;
18887;SDS011;9576;47.792;9.628;2023-02-13T12:32:01;39.22;;;16.00;;
18887;SDS011;9576;47.792;9.628;2023-02-13T12:38:41;38.60;;;15.13;;
18887;SDS011;9576;47.792;9.628;2023-02-13T12:42:00;32.65;;;14.45;;
18887;SDS011;9576;47.792;9.628;2023-02-13T12:45:11;39.25;;;15.95;;
18887;SDS011;9576;47.792;9.628;2023-02-13T12:48:27;37.08;;;14.13;;
18887;SDS011;9576;47.792;9.628;2023-02-13T12:51:40;35.58;;;15.05;;
18887;SDS011;9576;47.792;9.628;2023-02-13T12:54:53;37.80;;;15.35;;
18887;SDS011;9576;47.792;9.628;2023-02-13T12:58:17;34.15;;;14.70;;
18887;SDS011;9576;47.792;9.628;2023-02-13T13:01:59;35.90;;;15.30;;
18887;SDS011;9576;47.792;9.628;2023-02-13T13:05:42;35.78;;;15.38;;
18887;SDS011;9576;47.792;9.628;2023-02-13T13:12:28;40.88;;;14.98;;
18887;SDS011;9576;47.792;9.628;2023-02-13T13:15:39;32.33;;;14.98;;
18887;SDS011;9576;47.792;9.628;2023-02-13T13:18:49;37.40;;;14.52;;
18887;SDS011;9576;47.792;9.628;2023-02-13T13:21:59;38.67;;;15.77;;
18887;SDS011;9576;47.792;9.628;2023-02-13T13:25:08;37.97;;;13.57;;
18887;SDS011;9576;47.792;9.628;2023-02-13T13:28:19;34.20;;;15.63;;
18887;SDS011;9576;47.792;9.628;2023-02-13T13:31:26;34.92;;;15.70;;
18887;SDS011;9576;47.792;9.628;2023-02-13T13:34:29;36.78;;;15.88;;
18887;SDS011;9576;47.792;9.628;2023-02-13T13:37:35;39.92;;;15.85;;
18887;SDS011;9576;47.792;9.628;2023-02-13T13:40:44;39.45;;;15.63;;
18887;SDS011;9576;47.792;9.628;2023-02-13T13:43:56;41.97;;;16.67;;
18887;SDS011;9576;47.792;9.628;2023-02-13T13:47:08;36.60;;;17.98;;
18887;SDS011;9576;47.792;9.628;2023-02-13T13:50:21;34.70;;;14.98;;
18887;SDS011;9576;47.792;9.628;2023-02-13T13:53:25;33.33;;;14.85;;
18887;SDS011;9576;47.792;9.628;2023-02-13T13:56:31;30.55;;;14.40;;
18887;SDS011;9576;47.792;9.628;2023-02-13T14:03:36;35.63;;;14.48;;
18887;SDS011;9576;47.792;9.628;2023-02-13T14:13:59;38.28;;;14.93;;
18887;SDS011;9576;47.792;9.628;2023-02-13T14:17:02;33.50;;;14.90;;
18887;SDS011;9576;47.792;9.628;2023-02-13T14:20:18;36.95;;;15.98;;
18887;SDS011;9576;47.792;9.628;2023-02-13T14:23:37;34.00;;;14.50;;
18887;SDS011;9576;47.792;9.628;2023-02-13T14:26:49;32.17;;;15.23;;
18887;SDS011;9576;47.792;9.628;2023-02-13T14:29:54;45.28;;;14.73;;
18887;SDS011;9576;47.792;9.628;2023-02-13T14:32:57;39.90;;;17.42;;
18887;SDS011;9576;47.792;9.628;2023-02-13T14:36:06;30.27;;;13.43;;
18887;SDS011;9576;47.792;9.628;2023-02-13T14:39:22;53.78;;;20.10;;
18887;SDS011;9576;47.792;9.628;2023-02-13T14:42:27;39.65;;;16.77;;
18887;SDS011;9576;47.792;9.628;2023-02-13T14:45:31;40.42;;;17.95;;
18887;SDS011;9576;47.792;9.628;2023-02-13T14:48:38;34.10;;;16.73;;
18887;SDS011;9576;47.792;9.628;2023-02-13T14:51:46;35.90;;;15.52;;
18887;SDS011;9576;47.792;9.628;2023-02-13T14:54:50;32.78;;;15.88;;
18887;SDS011;9576;47.792;9.628;2023-02-13T14:57:57;33.08;;;14.05;;
18887;SDS011;9576;47.792;9.628;2023-02-13T15:01:05;30.88;;;14.63;;
18887;SDS011;9576;47.792;9.628;2023-02-13T15:04:16;24.77;;;13.50;;
18887;SDS011;9576;47.792;9.628;2023-02-13T15:07:25;31.63;;;14.80;;
18887;SDS011;9576;47.792;9.628;2023-02-13T15:10:32;26.17;;;12.77;;
18887;SDS011;9576;47.792;9.628;2023-02-13T15:13:41;30.92;;;14.55;;
18887;SDS011;9576;47.792;9.628;2023-02-13T15:16:44;24.85;;;12.65;;
18887;SDS011;9576;47.792;9.628;2023-02-13T15:19:49;37.78;;;14.93;;
18887;SDS011;9576;47.792;9.628;2023-02-13T15:22:54;34.22;;;15.13;;
18887;SDS011;9576;47.792;9.628;2023-02-13T15:29:01;33.22;;;14.35;;
18887;SDS011;9576;47.792;9.628;2023-02-13T15:32:16;30.95;;;14.27;;
18887;SDS011;9576;47.792;9.628;2023-02-13T15:35:23;30.75;;;12.93;;
18887;SDS011;9576;47.792;9.628;2023-02-13T15:38:29;33.30;;;14.10;;
18887;SDS011;9576;47.792;9.628;2023-02-13T15:41:32;27.67;;;13.23;;
18887;SDS011;9576;47.792;9.628;2023-02-13T15:44:38;29.73;;;13.50;;
18887;SDS011;9576;47.792;9.628;2023-02-13T15:47:40;33.58;;;15.27;;
18887;SDS011;9576;47.792;9.628;2023-02-13T15:50:44;34.00;;;12.68;;
18887;SDS011;9576;47.792;9.628;2023-02-13T15:53:51;32.55;;;14.13;;
18887;SDS011;9576;47.792;9.628;2023-02-13T15:56:55;35.25;;;13.85;;
18887;SDS011;9576;47.792;9.628;2023-02-13T15:59:59;34.83;;;13.13;;
18887;SDS011;9576;47.792;9.628;2023-02-13T16:03:03;28.80;;;13.47;;
18887;SDS011;9576;47.792;9.628;2023-02-13T16:06:08;27.92;;;12.25;;
18887;SDS011;9576;47.792;9.628;2023-02-13T16:09:23;34.20;;;14.30;;
18887;SDS011;9576;47.792;9.628;2023-02-13T16:12:27;32.17;;;13.75;;
18887;SDS011;9576;47.792;9.628;2023-02-13T16:15:29;29.98;;;14.15;;
18887;SDS011;9576;47.792;9.628;2023-02-13T16:21:35;33.65;;;14.43;;
18887;SDS011;9576;47.792;9.628;2023-02-13T16:24:39;29.35;;;13.68;;
18887;SDS011;9576;47.792;9.628;2023-02-13T16:27:47;35.90;;;14.90;;
18887;SDS011;9576;47.792;9.628;2023-02-13T16:30:51;45.90;;;14.30;;
18887;SDS011;9576;47.792;9.628;2023-02-13T16:33:58;34.17;;;14.05;;
18887;SDS011;9576;47.792;9.628;2023-02-13T16:37:24;53.80;;;18.10;;
18887;SDS011;9576;47.792;9.628;2023-02-13T16:40:39;39.25;;;16.00;;
18887;SDS011;9576;47.792;9.628;2023-02-13T16:43:44;38.80;;;16.13;;
18887;SDS011;9576;47.792;9.628;2023-02-13T16:46:48;38.93;;;14.73;;
18887;SDS011;9576;47.792;9.628;2023-02-13T16:49:53;47.80;;;21.13;;
18887;SDS011;9576;47.792;9.628;2023-02-13T16:56:02;43.85;;;16.02;;
18887;SDS011;9576;47.792;9.628;2023-02-13T16:59:19;47.55;;;16.70;;
18887;SDS011;9576;47.792;9.628;2023-02-13T17:02:24;57.55;;;18.75;;
18887;SDS011;9576;47.792;9.628;2023-02-13T17:05:27;49.35;;;19.08;;
18887;SDS011;9576;47.792;9.628;2023-02-13T17:08:30;51.90;;;17.27;;
18887;SDS011;9576;47.792;9.628;2023-02-13T17:11:33;51.38;;;18.98;;
18887;SDS011;9576;47.792;9.628;2023-02-13T17:14:35;43.05;;;16.77;;
18887;SDS011;9576;47.792;9.628;2023-02-13T17:17:37;50.30;;;18.65;;
18887;SDS011;9576;47.792;9.628;2023-02-13T17:20:39;59.60;;;22.63;;
18887;SDS011;9576;47.792;9.628;2023-02-13T17:23:43;47.28;;;18.73;;
18887;SDS011;9576;47.792;9.628;2023-02-13T17:26:48;53.27;;;18.77;;
18887;SDS011;9576;47.792;9.628;2023-02-13T17:29:50;53.88;;;18.08;;
18887;SDS011;9576;47.792;9.628;2023-02-13T17:32:52;51.58;;;19.33;;
18887;SDS011;9576;47.792;9.628;2023-02-13T17:35:58;57.72;;;20.35;;
18887;SDS011;9576;47.792;9.628;2023-02-13T17:39:00;50.67;;;20.63;;
18887;SDS011;9576;47.792;9.628;2023-02-13T17:42:03;47.35;;;19.35;;
18887;SDS011;9576;47.792;9.628;2023-02-13T17:45:05;47.90;;;19.02;;
18887;SDS011;9576;47.792;9.628;2023-02-13T17:48:08;57.35;;;21.08;;
18887;SDS011;9576;47.792;9.628;2023-02-13T17:51:10;65.72;;;22.73;;
18887;SDS011;9576;47.792;9.628;2023-02-13T17:54:14;62.90;;;22.92;;
18887;SDS011;9576;47.792;9.628;2023-02-13T17:57:17;64.63;;;24.27;;
18887;SDS011;9576;47.792;9.628;2023-02-13T18:00:19;81.07;;;25.58;;
18887;SDS011;9576;47.792;9.628;2023-02-13T18:03:22;67.45;;;23.67;;
18887;SDS011;9576;47.792;9.628;2023-02-13T18:06:25;69.40;;;23.00;;
18887;SDS011;9576;47.792;9.628;2023-02-13T18:09:26;81.32;;;25.60;;
18887;SDS011;9576;47.792;9.628;2023-02-13T18:12:30;72.13;;;25.20;;
18887;SDS011;9576;47.792;9.628;2023-02-13T18:15:32;80.40;;;25.75;;
18887;SDS011;9576;47.792;9.628;2023-02-13T18:21:40;82.18;;;29.02;;
18887;SDS011;9576;47.792;9.628;2023-02-13T18:24:42;99.18;;;31.92;;
18887;SDS011;9576;47.792;9.628;2023-02-13T18:27:45;92.47;;;30.70;;
18887;SDS011;9576;47.792;9.628;2023-02-13T18:30:47;83.85;;;26.27;;
18887;SDS011;9576;47.792;9.628;2023-02-13T18:33:49;81.47;;;28.88;;
18887;SDS011;9576;47.792;9.628;2023-02-13T18:36:51;69.35;;;26.23;;
18887;SDS011;9576;47.792;9.628;2023-02-13T18:39:53;74.80;;;27.08;;
18887;SDS011;9576;47.792;9.628;2023-02-13T18:42:57;84.97;;;28.70;;
18887;SDS011;9576;47.792;9.628;2023-02-13T18:45:59;88.93;;;26.60;;
18887;SDS011;9576;47.792;9.628;2023-02-13T18:49:02;77.00;;;26.52;;
18887;SDS011;9576;47.792;9.628;2023-02-13T18:52:04;87.03;;;27.63;;
18887;SDS011;9576;47.792;9.628;2023-02-13T18:55:06;83.55;;;27.45;;
18887;SDS011;9576;47.792;9.628;2023-02-13T18:58:10;95.88;;;28.95;;
18887;SDS011;9576;47.792;9.628;2023-02-13T19:01:13;83.05;;;28.60;;
18887;SDS011;9576;47.792;9.628;2023-02-13T19:04:18;78.47;;;25.60;;
18887;SDS011;9576;47.792;9.628;2023-02-13T19:07:20;92.07;;;28.60;;
18887;SDS011;9576;47.792;9.628;2023-02-13T19:10:22;75.90;;;29.58;;